createdAt,value
2019-04-22T00:02:22.589Z,5.10
2019-04-22T00:05:05.758Z,5.57
2019-04-22T00:07:53.304Z,5.60
2019-04-22T00:10:20.874Z,4.53
2019-04-22T00:15:15.741Z,4.93
2019-04-22T00:17:55.229Z,5.63
2019-04-22T00:20:30.732Z,5.03
2019-04-22T00:22:44.864Z,4.83
2019-04-22T00:27:57.618Z,4.60
2019-04-22T00:32:58.987Z,4.90
2019-04-22T00:35:29.224Z,5.63
2019-04-22T00:38:05.121Z,5.03
2019-04-22T00:40:38.382Z,4.50
2019-04-22T00:42:58.389Z,5.57
2019-04-22T00:45:33.367Z,6.57
2019-04-22T00:48:09.135Z,7.37
2019-04-22T00:50:55.690Z,8.10
2019-04-22T00:53:11.649Z,5.97
2019-04-22T00:55:43.485Z,6.30
2019-04-22T00:58:12.179Z,5.63
2019-04-22T01:00:39.226Z,5.50
2019-04-22T01:03:11.789Z,6.10
2019-04-22T01:05:40.811Z,5.47
2019-04-22T01:08:12.942Z,6.07
2019-04-22T01:10:40.061Z,6.23
2019-04-22T01:13:14.171Z,5.50
2019-04-22T01:15:40.781Z,6.00
2019-04-22T01:18:09.691Z,5.73
2019-04-22T01:21:00.975Z,5.53
2019-04-22T01:23:04.071Z,5.07
2019-04-22T01:25:36.503Z,4.57
2019-04-22T01:28:01.279Z,5.70
2019-04-22T01:30:30.329Z,5.20
2019-04-22T01:32:52.875Z,5.50
2019-04-22T01:35:35.204Z,5.40
2019-04-22T01:38:07.903Z,5.37
2019-04-22T01:40:45.195Z,4.90
2019-04-22T01:43:18.641Z,5.10
2019-04-22T01:45:47.660Z,4.70
2019-04-22T01:48:22.797Z,6.13
2019-04-22T01:50:48.553Z,6.60
2019-04-22T01:53:24.602Z,5.20
2019-04-22T01:55:52.132Z,4.80
2019-04-22T01:58:11.092Z,4.10
2019-04-22T02:00:58.222Z,5.00
2019-04-22T02:03:17.613Z,4.70
2019-04-22T02:05:52.155Z,4.80
2019-04-22T02:08:25.499Z,5.70
2019-04-22T02:13:25.144Z,5.53
2019-04-22T02:15:53.885Z,5.53
2019-04-22T02:18:23.098Z,5.63
2019-04-22T02:20:48.839Z,5.23
2019-04-22T02:23:45.434Z,5.53
2019-04-22T02:26:07.589Z,5.87
2019-04-22T02:28:40.046Z,6.37
2019-04-22T02:34:07.924Z,6.77
2019-04-22T02:41:23.041Z,4.70
2019-04-22T02:43:55.418Z,6.50
2019-04-22T02:51:17.189Z,5.30
2019-04-22T02:54:17.394Z,6.37
2019-04-22T02:58:58.377Z,6.87
2019-04-22T03:04:01.150Z,6.40
2019-04-22T03:06:34.860Z,6.30
2019-04-22T03:09:01.249Z,6.80
2019-04-22T03:13:59.922Z,6.70
2019-04-22T03:16:29.693Z,6.13
2019-04-22T03:21:24.068Z,6.20
2019-04-22T03:26:27.248Z,6.50
2019-04-22T03:28:54.849Z,6.63
2019-04-22T03:41:51.833Z,7.70
2019-04-22T03:44:18.900Z,6.27
2019-04-22T03:46:44.780Z,6.73
2019-04-22T03:49:17.688Z,7.43
2019-04-22T03:54:25.904Z,6.20
2019-04-22T03:59:19.947Z,6.80
2019-04-22T04:01:46.462Z,6.30
2019-04-22T04:04:21.199Z,8.13
2019-04-22T04:06:54.262Z,6.87
2019-04-22T04:09:18.406Z,8.60
2019-04-22T04:11:55.764Z,8.17
2019-04-22T04:14:21.872Z,6.93
2019-04-22T04:16:49.891Z,7.90
2019-04-22T04:19:13.474Z,7.57
2019-04-22T04:21:42.128Z,6.80
2019-04-22T04:27:07.622Z,5.83
2019-04-22T04:32:01.122Z,7.50
2019-04-22T04:39:17.980Z,7.53
2019-04-22T04:44:22.723Z,6.70
2019-04-22T04:46:51.626Z,6.57
2019-04-22T04:49:25.422Z,5.70
2019-04-22T04:51:51.297Z,6.33
2019-04-22T04:59:30.712Z,7.57
2019-04-22T05:01:55.586Z,6.70
2019-04-22T05:04:25.462Z,6.90
2019-04-22T05:12:01.755Z,6.77
2019-04-22T05:14:19.219Z,6.10
2019-04-22T05:16:54.130Z,7.07
2019-04-22T05:19:24.042Z,6.33
2019-04-22T05:21:48.560Z,6.33
2019-04-22T05:24:22.731Z,5.43
2019-04-22T05:26:52.366Z,5.77
2019-04-22T05:29:17.047Z,5.20
2019-04-22T05:31:52.390Z,7.00
2019-04-22T05:34:28.208Z,6.97
2019-04-22T05:36:48.040Z,7.03
2019-04-22T05:39:17.242Z,6.17
2019-04-22T05:41:52.638Z,6.57
2019-04-22T05:46:47.888Z,6.60
2019-04-22T05:49:18.198Z,6.60
2019-04-22T05:51:48.500Z,6.77
2019-04-22T05:54:22.902Z,7.53
2019-04-22T05:56:44.255Z,7.27
2019-04-22T05:59:28.909Z,6.27
2019-04-22T06:02:21.087Z,6.10
2019-04-22T06:04:23.607Z,6.50
2019-04-22T06:06:53.834Z,6.37
2019-04-22T06:09:24.547Z,6.70
2019-04-22T06:11:51.584Z,6.70
2019-04-22T06:14:20.361Z,6.80
2019-04-22T06:16:57.147Z,7.40
2019-04-22T06:19:24.784Z,6.13
2019-04-22T06:21:58.010Z,6.63
2019-04-22T06:24:42.017Z,7.67
2019-04-22T06:27:08.515Z,6.90
2019-04-22T06:29:25.251Z,6.57
2019-04-22T06:32:17.478Z,7.47
2019-04-22T06:34:31.651Z,7.90
2019-04-22T06:37:11.666Z,8.87
2019-04-22T06:42:01.001Z,8.17
2019-04-22T06:44:29.887Z,7.27
2019-04-22T06:47:03.433Z,7.03
2019-04-22T06:49:35.846Z,7.30
2019-04-22T06:52:12.889Z,7.10
2019-04-22T06:54:32.652Z,6.40
2019-04-22T06:59:31.266Z,7.93
2019-04-22T07:04:33.770Z,6.83
2019-04-22T07:07:06.632Z,6.87
2019-04-22T07:12:08.453Z,7.17
2019-04-22T07:14:35.266Z,7.23
2019-04-22T07:17:01.931Z,7.53
2019-04-22T07:27:10.245Z,5.53
2019-04-22T07:29:39.305Z,5.90
2019-04-22T07:32:06.790Z,5.03
2019-04-22T07:34:39.998Z,4.47
2019-04-22T07:37:22.695Z,5.17
2019-04-22T07:39:39.527Z,4.77
2019-04-22T07:42:12.612Z,4.37
2019-04-22T07:44:42.759Z,3.83
2019-04-22T07:47:20.580Z,3.83
2019-04-22T07:52:09.536Z,4.20
2019-04-22T07:54:43.137Z,4.40
2019-04-22T07:59:40.416Z,3.70
2019-04-22T08:02:16.131Z,4.30
2019-04-22T08:04:54.228Z,3.33
2019-04-22T08:07:14.565Z,4.17
2019-04-22T08:09:51.029Z,4.60
2019-04-22T08:12:11.713Z,4.13
2019-04-22T08:14:45.554Z,3.60
2019-04-22T08:17:39.946Z,4.33
2019-04-22T08:19:50.483Z,3.17
2019-04-22T08:22:14.380Z,3.63
2019-04-22T08:24:47.202Z,3.97
2019-04-22T08:27:15.490Z,3.90
2019-04-22T08:29:58.695Z,3.17
2019-04-22T08:32:21.775Z,3.70
2019-04-22T08:34:47.550Z,3.87
2019-04-22T08:39:49.984Z,3.57
2019-04-22T08:42:34.903Z,3.83
2019-04-22T08:45:05.820Z,4.67
2019-04-22T08:47:31.187Z,4.10
2019-04-22T08:52:31.943Z,4.17
2019-04-22T08:55:01.902Z,3.47
2019-04-22T08:57:40.815Z,3.93
2019-04-22T08:59:55.257Z,3.57
2019-04-22T09:02:32.687Z,3.97
2019-04-22T09:04:53.933Z,3.90
2019-04-22T09:07:28.356Z,4.20
2019-04-22T09:09:55.410Z,3.80
2019-04-22T09:12:36.621Z,3.87
2019-04-22T09:14:53.624Z,3.57
2019-04-22T09:17:32.590Z,4.43
2019-04-22T09:20:00.323Z,3.67
2019-04-22T09:22:26.198Z,4.23
2019-04-22T09:24:58.585Z,4.17
2019-04-22T09:27:37.012Z,4.27
2019-04-22T09:29:58.459Z,4.00
2019-04-22T09:32:34.832Z,5.10
2019-04-22T09:34:59.001Z,4.20
2019-04-22T09:37:34.120Z,3.47
2019-04-22T09:40:09.184Z,3.67
2019-04-22T09:42:32.548Z,4.50
2019-04-22T09:45:02.428Z,4.10
2019-04-22T09:47:36.083Z,6.87
2019-04-22T09:50:01.914Z,5.67
2019-04-22T09:52:48.850Z,8.20
2019-04-22T09:55:06.114Z,3.80
2019-04-22T09:57:33.891Z,5.83
2019-04-22T10:05:07.666Z,4.07
2019-04-22T10:07:36.752Z,4.60
2019-04-22T10:10:09.976Z,4.57
2019-04-22T10:12:42.302Z,4.03
2019-04-22T10:15:11.596Z,4.40
2019-04-22T10:17:36.486Z,4.50
2019-04-22T10:20:09.005Z,4.73
2019-04-22T10:22:43.988Z,3.60
2019-04-22T10:25:10.850Z,3.73
2019-04-22T10:27:42.910Z,3.87
2019-04-22T10:30:17.116Z,4.10
2019-04-22T10:32:44.685Z,4.00
2019-04-22T10:35:12.291Z,4.80
2019-04-22T10:37:36.561Z,4.00
2019-04-22T10:40:13.632Z,3.30
2019-04-22T10:42:43.513Z,2.97
2019-04-22T10:45:14.329Z,3.62
2019-04-22T10:47:43.623Z,3.25
2019-04-22T10:50:14.442Z,3.40
2019-04-22T10:52:43.674Z,3.15
2019-04-22T10:55:13.829Z,3.12
2019-04-22T10:57:44.422Z,2.83
2019-04-22T11:00:15.640Z,2.52
2019-04-22T11:02:45.706Z,3.15
2019-04-22T11:05:16.494Z,3.22
2019-04-22T11:07:51.948Z,2.85
2019-04-22T11:10:34.658Z,2.70
2019-04-22T11:12:49.298Z,2.70
2019-04-22T11:15:18.453Z,2.95
2019-04-22T11:17:49.362Z,3.35
2019-04-22T11:20:19.829Z,2.08
2019-04-22T11:22:49.057Z,2.72
2019-04-22T11:25:18.127Z,2.80
2019-04-22T11:27:47.326Z,2.90
2019-04-22T11:30:19.013Z,2.90
2019-04-22T11:32:46.623Z,3.63
2019-04-22T11:35:16.145Z,2.60
2019-04-22T11:37:44.841Z,3.50
2019-04-22T11:40:18.958Z,3.23
2019-04-22T11:42:43.926Z,3.33
2019-04-22T11:45:13.217Z,3.33
2019-04-22T11:47:43.272Z,3.23
2019-04-22T11:50:12.221Z,2.90
2019-04-22T11:52:40.722Z,3.20
2019-04-22T11:55:10.879Z,3.20
2019-04-22T11:57:41.196Z,2.83
2019-04-22T12:00:12.699Z,3.00
2019-04-22T12:02:42.933Z,3.50
2019-04-22T12:05:11.962Z,3.20
2019-04-22T12:07:42.355Z,2.20
2019-04-22T12:10:24.665Z,3.23
2019-04-22T12:12:44.838Z,2.83
2019-04-22T12:15:13.094Z,2.33
2019-04-22T12:17:42.650Z,2.97
2019-04-22T12:20:14.061Z,3.10
2019-04-22T12:22:42.891Z,3.20
2019-04-22T12:25:12.444Z,2.43
2019-04-22T12:27:41.300Z,2.10
2019-04-22T12:30:12.900Z,2.30
2019-04-22T12:32:41.384Z,3.87
2019-04-22T12:35:15.648Z,2.57
2019-04-22T12:37:51.475Z,2.80
2019-04-22T12:40:27.599Z,2.53
2019-04-22T12:42:47.207Z,2.80
2019-04-22T12:45:16.338Z,3.10
2019-04-22T12:47:46.187Z,2.23
2019-04-22T12:50:25.555Z,3.10
2019-04-22T12:52:54.931Z,3.00
2019-04-22T12:55:17.571Z,3.20
2019-04-22T12:57:46.516Z,2.50
2019-04-22T13:00:17.674Z,2.40
2019-04-22T13:02:47.304Z,2.87
2019-04-22T13:05:16.555Z,2.80
2019-04-22T13:07:45.139Z,2.10
2019-04-22T13:10:13.986Z,2.27
2019-04-22T13:12:42.814Z,2.13
2019-04-22T13:15:14.226Z,1.80
2019-04-22T13:17:44.221Z,2.37
2019-04-22T13:20:16.392Z,2.30
2019-04-22T13:22:45.053Z,2.40
2019-04-22T13:25:13.609Z,1.90
2019-04-22T13:27:42.868Z,3.00
2019-04-22T13:30:14.388Z,2.57
2019-04-22T13:32:43.038Z,2.70
2019-04-22T13:35:12.835Z,2.80
2019-04-22T13:37:43.334Z,2.27
2019-04-22T13:40:12.823Z,2.60
2019-04-22T13:42:42.698Z,2.70
2019-04-22T13:45:11.785Z,2.37
2019-04-22T13:47:59.722Z,2.30
2019-04-22T13:51:01.664Z,2.27
2019-04-22T13:53:31.886Z,1.80
2019-04-22T13:57:58.272Z,3.00
2019-04-22T14:00:24.889Z,3.60
2019-04-22T14:03:08.731Z,2.80
2019-04-22T14:05:40.412Z,2.93
2019-04-22T14:08:10.707Z,2.23
2019-04-22T14:10:40.608Z,2.57
2019-04-22T14:13:09.964Z,3.13
2019-04-22T14:15:40.147Z,2.50
2019-04-22T14:18:08.793Z,2.33
2019-04-22T14:20:38.586Z,2.40
2019-04-22T14:23:08.357Z,2.23
2019-04-22T14:25:38.634Z,2.70
2019-04-22T14:28:11.820Z,1.97
2019-04-22T14:30:38.768Z,2.17
2019-04-22T14:33:07.452Z,2.13
2019-04-22T14:35:38.027Z,1.60
2019-04-22T14:38:06.535Z,2.00
2019-04-22T14:40:38.604Z,2.27
2019-04-22T14:43:35.142Z,2.10
2019-04-22T14:48:35.968Z,1.40
2019-04-22T14:50:56.021Z,2.10
2019-04-22T14:53:30.821Z,2.20
2019-04-22T14:55:40.383Z,2.57
2019-04-22T14:58:09.299Z,1.67
2019-04-22T15:00:38.299Z,1.87
2019-04-22T15:03:08.231Z,1.80
2019-04-22T15:05:37.275Z,1.93
2019-04-22T15:08:07.034Z,1.87
2019-04-22T15:10:36.151Z,1.70
2019-04-22T15:13:05.357Z,1.10
2019-04-22T15:15:46.964Z,1.67
2019-04-22T15:18:17.547Z,1.67
2019-04-22T15:20:54.269Z,2.13
2019-04-22T15:23:24.654Z,1.90
2019-04-22T15:25:54.655Z,2.20
2019-04-22T15:28:23.784Z,1.63
2019-04-22T15:30:53.249Z,2.40
2019-04-22T15:33:21.772Z,2.50
2019-04-22T15:35:51.528Z,1.70
2019-04-22T15:38:22.747Z,1.83
2019-04-22T15:40:50.386Z,2.30
2019-04-22T15:43:20.405Z,3.17
2019-04-22T15:45:49.017Z,2.67
2019-04-22T15:48:18.734Z,1.93
2019-04-22T15:50:48.685Z,2.07
2019-04-22T15:53:17.989Z,2.20
2019-04-22T15:55:47.134Z,2.70
2019-04-22T15:58:15.694Z,2.33
2019-04-22T16:00:57.738Z,2.40
2019-04-22T16:03:14.681Z,2.20
2019-04-22T16:05:44.100Z,2.53
2019-04-22T16:08:12.969Z,2.20
2019-04-22T16:10:42.094Z,2.80
2019-04-22T16:13:18.369Z,4.67
2019-04-22T16:15:40.861Z,2.23
2019-04-22T16:18:12.578Z,3.23
2019-04-22T16:20:40.524Z,1.57
2019-04-22T16:23:29.242Z,2.20
2019-04-22T16:26:15.330Z,1.97
2019-04-22T16:28:56.318Z,2.00
2019-04-22T16:31:25.109Z,2.33
2019-04-22T16:33:54.362Z,2.50
2019-04-22T16:36:23.097Z,2.40
2019-04-22T16:38:53.135Z,2.30
2019-04-22T16:41:21.760Z,2.63
2019-04-22T16:43:50.798Z,2.47
2019-04-22T16:46:19.460Z,2.73
2019-04-22T16:48:48.006Z,2.17
2019-04-22T16:51:17.940Z,2.60
2019-04-22T16:53:47.523Z,3.30
2019-04-22T16:56:17.046Z,2.53
2019-04-22T16:58:46.519Z,3.30
2019-04-22T17:01:20.735Z,2.87
2019-04-22T17:04:00.653Z,3.27
2019-04-22T17:06:31.804Z,2.37
2019-04-22T17:09:00.610Z,1.67
2019-04-22T17:11:29.787Z,2.27
2019-04-22T17:13:59.343Z,2.77
2019-04-22T17:16:28.482Z,2.13
2019-04-22T17:18:58.498Z,2.80
2019-04-22T17:21:27.767Z,2.50
2019-04-22T17:23:56.351Z,2.27
2019-04-22T17:26:26.321Z,2.90
2019-04-22T17:28:55.501Z,4.20
2019-04-22T17:31:24.825Z,4.70
2019-04-22T17:33:54.836Z,3.23
2019-04-22T17:36:24.335Z,2.67
2019-04-22T17:39:00.798Z,3.00
2019-04-22T17:41:38.812Z,2.47
2019-04-22T17:44:18.938Z,3.37
2019-04-22T17:46:40.630Z,2.40
2019-04-22T17:49:27.019Z,2.83
2019-04-22T17:52:13.871Z,3.00
2019-04-22T17:54:38.588Z,2.33
2019-04-22T17:57:10.006Z,2.07
2019-04-22T17:59:40.898Z,2.27
2019-04-22T18:02:06.442Z,2.47
2019-04-22T18:04:20.043Z,3.13
2019-04-22T18:07:13.483Z,2.13
2019-04-22T18:10:10.987Z,2.43
2019-04-22T18:12:19.854Z,2.20
2019-04-22T18:14:52.871Z,2.23
2019-04-22T18:17:12.865Z,3.50
2019-04-22T18:19:41.360Z,2.57
2019-04-22T18:22:03.738Z,1.83
2019-04-22T18:24:28.391Z,2.20
2019-04-22T18:27:19.785Z,2.20
2019-04-22T18:29:41.790Z,1.70
2019-04-22T18:32:02.804Z,2.00
2019-04-22T18:34:35.174Z,2.37
2019-04-22T18:37:09.377Z,2.30
2019-04-22T18:39:49.646Z,2.40
2019-04-22T18:42:09.363Z,2.47
2019-04-22T18:44:45.543Z,2.00
2019-04-22T18:47:13.026Z,1.80
2019-04-22T18:49:42.899Z,2.43
2019-04-22T18:52:19.732Z,2.27
2019-04-22T18:54:53.366Z,2.47
2019-04-22T18:57:22.379Z,3.17
2019-04-22T18:59:41.114Z,1.90
2019-04-22T19:02:13.510Z,1.77
2019-04-22T19:04:47.362Z,2.50
2019-04-22T19:07:35.127Z,1.87
2019-04-22T19:10:06.333Z,2.37
2019-04-22T19:12:33.983Z,2.40
2019-04-22T19:15:16.391Z,3.13
2019-04-22T19:17:40.508Z,2.80
2019-04-22T19:20:12.505Z,3.60
2019-04-22T19:22:36.461Z,2.60
2019-04-22T19:24:54.681Z,3.00
2019-04-22T19:27:31.393Z,1.90
2019-04-22T19:30:04.340Z,2.90
2019-04-22T19:32:35.658Z,2.50
2019-04-22T19:34:57.446Z,1.50
2019-04-22T19:37:28.405Z,2.40
2019-04-22T19:40:10.364Z,2.57
2019-04-22T19:42:40.835Z,2.37
2019-04-22T19:45:02.526Z,2.33
2019-04-22T19:47:38.721Z,2.47
2019-04-22T19:50:11.752Z,2.53
2019-04-22T19:52:35.314Z,1.70
2019-04-22T19:55:10.307Z,3.20
2019-04-22T19:57:39.062Z,1.80
2019-04-22T20:00:05.106Z,4.10
2019-04-22T20:02:57.253Z,3.07
2019-04-22T20:05:26.790Z,3.37
2019-04-22T20:07:45.861Z,2.93
2019-04-22T20:10:25.276Z,4.47
2019-04-22T20:12:50.170Z,4.03
2019-04-22T20:15:18.493Z,3.87
2019-04-22T20:18:20.877Z,3.33
2019-04-22T20:20:27.770Z,2.97
2019-04-22T20:22:54.424Z,2.83
2019-04-22T20:25:14.580Z,2.63
2019-04-22T20:27:58.114Z,3.30
2019-04-22T20:30:29.309Z,2.33
2019-04-22T20:32:51.099Z,2.80
2019-04-22T20:35:34.305Z,2.70
2019-04-22T20:37:57.938Z,3.40
2019-04-22T20:40:31.351Z,4.13
2019-04-22T20:43:23.508Z,3.40
2019-04-22T20:45:36.336Z,2.73
2019-04-22T20:47:51.236Z,2.93
2019-04-22T20:50:34.710Z,3.90
2019-04-22T20:53:06.453Z,4.10
2019-04-22T20:55:25.737Z,2.70
2019-04-22T20:58:08.149Z,4.00
2019-04-22T21:00:25.222Z,3.10
2019-04-22T21:02:51.572Z,3.43
2019-04-22T21:05:24.858Z,3.80
2019-04-22T21:08:08.115Z,3.73
2019-04-22T21:10:28.250Z,3.77
2019-04-22T21:13:00.155Z,2.70
2019-04-22T21:15:42.488Z,3.00
2019-04-22T21:18:08.248Z,3.20
2019-04-22T21:20:36.792Z,3.47
2019-04-22T21:23:06.112Z,3.17
2019-04-22T21:25:29.118Z,3.83
2019-04-22T21:28:13.125Z,2.93
2019-04-22T21:30:37.621Z,3.00
2019-04-22T21:33:03.583Z,3.43
2019-04-22T21:35:55.856Z,3.40
2019-04-22T21:38:08.646Z,3.40
2019-04-22T21:40:40.230Z,3.73
2019-04-22T21:43:12.162Z,2.80
2019-04-22T21:45:32.263Z,3.40
2019-04-22T21:48:20.568Z,3.03
2019-04-22T21:50:48.228Z,3.07
2019-04-22T21:53:16.457Z,2.83
2019-04-22T21:55:49.170Z,3.43
2019-04-22T21:58:31.546Z,3.80
2019-04-22T22:03:23.785Z,3.57
2019-04-22T22:05:43.732Z,3.70
2019-04-22T22:08:27.553Z,3.20
2019-04-22T22:10:54.382Z,3.80
2019-04-22T22:13:25.337Z,4.30
2019-04-22T22:15:53.748Z,3.50
2019-04-22T22:18:12.243Z,4.20
2019-04-22T22:21:12.164Z,3.67
2019-04-22T22:23:40.882Z,3.90
2019-04-22T22:25:47.714Z,4.50
2019-04-22T22:28:41.464Z,4.67
2019-04-22T22:31:15.494Z,4.20
2019-04-22T22:33:27.162Z,4.30
2019-04-22T22:35:56.524Z,3.10
2019-04-22T22:38:24.357Z,2.97
2019-04-22T22:40:39.893Z,3.63
2019-04-22T22:43:19.088Z,3.90
2019-04-22T22:45:44.971Z,4.07
2019-04-22T22:48:36.790Z,3.20
2019-04-22T22:50:55.153Z,3.70
2019-04-22T22:53:33.998Z,3.93
2019-04-22T22:55:58.010Z,3.40
2019-04-22T22:58:27.986Z,4.27
2019-04-22T23:00:56.194Z,4.33
2019-04-22T23:03:45.610Z,3.97
2019-04-22T23:06:03.548Z,4.80
2019-04-22T23:08:34.255Z,4.27
2019-04-22T23:13:29.769Z,4.40
2019-04-22T23:15:55.431Z,4.90
2019-04-22T23:18:12.036Z,5.30
2019-04-22T23:20:45.580Z,5.17
2019-04-22T23:23:33.431Z,4.57
2019-04-22T23:26:00.654Z,4.30
2019-04-22T23:28:37.315Z,4.13
2019-04-22T23:31:12.447Z,3.70
2019-04-22T23:34:02.907Z,3.90
2019-04-22T23:36:26.424Z,3.73
2019-04-22T23:39:09.772Z,5.30
2019-04-22T23:44:11.363Z,6.17
2019-04-22T23:46:38.468Z,4.77
2019-04-22T23:49:04.323Z,6.30
2019-04-22T23:51:41.885Z,5.00
2019-04-22T23:54:19.387Z,4.60
2019-04-22T23:56:35.156Z,4.80
2019-04-22T23:59:13.406Z,5.97
